EWG590 EDDK-LEPA
Flight info
| Callsign | EWG590 |
|---|---|
| Flight time | 1h 51m |
| Altitude | 37000 |
| Route | NVO3P NVO Y868 NAVAK Z283 SOPOK DCT ROUSY DCT GTQ DCT POGOL DCT LASAT DCT MOROK DCT GILIR DCT GEVEA DCT INCUS DCT BALSI DCT RETNO DCT TUPOX DCT MTG DCT DIVKO DCT VATIR DCT PIVUS DCT BODEQ DCT VERSO L129 LUNIK |
| Aircraft | A320/M-SDE2E3FGIJ1RWXYZ/HB1 |
Departure
| Time | 2026-04-22 13:42 |
|---|---|
| Airport | Cologne Bonn Airport (EDDK) |
Arrival
| Time | 2026-04-22 15:34 |
|---|---|
| Airport | Palma de Mallorca Airport (LEPA) |
| Time | Latitude | Longitude | Altitude | Speed | Heading |
|---|---|---|---|---|---|
| 2026-04-22 13:17 | 50.87873 | 7.12462 | 232 ft | 0 kts | 288° |
| 2026-04-22 13:35 | 50.87873 | 7.12463 | 232 ft | 1 kts | 288° |
| 2026-04-22 13:35 | 50.87866 | 7.12499 | 232 ft | 4 kts | 288° |
| 2026-04-22 13:36 | 50.87859 | 7.12533 | 232 ft | 4 kts | 290° |
| 2026-04-22 13:36 | 50.87846 | 7.12566 | 233 ft | 4 kts | 329° |
| 2026-04-22 13:36 | 50.87822 | 7.12577 | 232 ft | 4 kts | 11° |
| 2026-04-22 13:36 | 50.87814 | 7.12574 | 233 ft | 0 kts | 18° |
| 2026-04-22 13:39 | 50.87818 | 7.12576 | 232 ft | 4 kts | 18° |
| 2026-04-22 13:39 | 50.87875 | 7.12605 | 232 ft | 11 kts | 18° |
| 2026-04-22 13:39 | 50.87954 | 7.12663 | 232 ft | 14 kts | 38° |
| 2026-04-22 13:40 | 50.88006 | 7.12790 | 237 ft | 13 kts | 73° |
| 2026-04-22 13:40 | 50.88008 | 7.12917 | 239 ft | 10 kts | 99° |
| 2026-04-22 13:40 | 50.87982 | 7.13011 | 239 ft | 8 kts | 135° |
| 2026-04-22 13:40 | 50.87979 | 7.13015 | 239 ft | 0 kts | 136° |
| 2026-04-22 13:41 | 50.87903 | 7.13125 | 239 ft | 44 kts | 138° |
| 2026-04-22 13:41 | 50.87496 | 7.13707 | 240 ft | 110 kts | 137° |
| 2026-04-22 13:41 | 50.86802 | 7.14713 | 266 ft | 158 kts | 137° |
| 2026-04-22 13:42 | 50.85917 | 7.15976 | 598 ft | 174 kts | 137° |
| 2026-04-22 13:42 | 50.85031 | 7.17223 | 1301 ft | 171 kts | 139° |
| 2026-04-22 13:42 | 50.84117 | 7.18509 | 1776 ft | 182 kts | 137° |
| 2026-04-22 13:42 | 50.83102 | 7.19932 | 2038 ft | 206 kts | 138° |
| 2026-04-22 13:43 | 50.81977 | 7.21500 | 2368 ft | 229 kts | 137° |
| 2026-04-22 13:43 | 50.80765 | 7.23225 | 3096 ft | 236 kts | 135° |
| 2026-04-22 13:43 | 50.79385 | 7.24620 | 3961 ft | 239 kts | 160° |
| 2026-04-22 13:43 | 50.77737 | 7.24856 | 4860 ft | 243 kts | 188° |
| 2026-04-22 13:44 | 50.76182 | 7.23833 | 5644 ft | 247 kts | 216° |
| 2026-04-22 13:44 | 50.75087 | 7.21720 | 6307 ft | 255 kts | 248° |
| 2026-04-22 13:44 | 50.74803 | 7.18976 | 7105 ft | 255 kts | 278° |
| 2026-04-22 13:44 | 50.75159 | 7.16198 | 7654 ft | 268 kts | 284° |
| 2026-04-22 13:45 | 50.75580 | 7.13214 | 8047 ft | 286 kts | 283° |
| 2026-04-22 13:45 | 50.76015 | 7.10103 | 8725 ft | 294 kts | 283° |
| 2026-04-22 13:45 | 50.76449 | 7.06923 | 9470 ft | 299 kts | 283° |
| 2026-04-22 13:45 | 50.76888 | 7.03692 | 10248 ft | 303 kts | 283° |
| 2026-04-22 13:46 | 50.77341 | 7.00374 | 10739 ft | 320 kts | 283° |
| 2026-04-22 13:46 | 50.77831 | 6.96787 | 10964 ft | 344 kts | 283° |
| 2026-04-22 13:46 | 50.78337 | 6.93040 | 11478 ft | 354 kts | 283° |
| 2026-04-22 13:46 | 50.78846 | 6.89208 | 12145 ft | 358 kts | 283° |
| 2026-04-22 13:47 | 50.79357 | 6.85385 | 12791 ft | 362 kts | 283° |
| 2026-04-22 13:47 | 50.79885 | 6.81474 | 13448 ft | 366 kts | 284° |
| 2026-04-22 13:47 | 50.80420 | 6.77515 | 14124 ft | 370 kts | 284° |
| 2026-04-22 13:47 | 50.80955 | 6.73521 | 14794 ft | 372 kts | 284° |
| 2026-04-22 13:48 | 50.81492 | 6.69504 | 15389 ft | 375 kts | 284° |
| 2026-04-22 13:48 | 50.82027 | 6.65452 | 15995 ft | 378 kts | 283° |
| 2026-04-22 13:48 | 50.82311 | 6.61320 | 16559 ft | 383 kts | 273° |
| 2026-04-22 13:48 | 50.82366 | 6.57060 | 17127 ft | 386 kts | 273° |
| 2026-04-22 13:49 | 50.82413 | 6.52794 | 17688 ft | 390 kts | 273° |
| 2026-04-22 13:49 | 50.82463 | 6.48498 | 18225 ft | 393 kts | 273° |
| 2026-04-22 13:49 | 50.82516 | 6.44162 | 18758 ft | 395 kts | 273° |
| 2026-04-22 13:49 | 50.82570 | 6.39804 | 19278 ft | 398 kts | 274° |
| 2026-04-22 13:50 | 50.82605 | 6.36897 | 19621 ft | 400 kts | 273° |
| 2026-04-22 13:50 | 50.82671 | 6.30987 | 20276 ft | 404 kts | 273° |
| 2026-04-22 13:50 | 50.82717 | 6.26527 | 20746 ft | 406 kts | 273° |
| 2026-04-22 13:50 | 50.82761 | 6.22046 | 21203 ft | 409 kts | 273° |
| 2026-04-22 13:51 | 50.82806 | 6.17536 | 21664 ft | 412 kts | 273° |
| 2026-04-22 13:51 | 50.82850 | 6.12980 | 22111 ft | 415 kts | 273° |
| 2026-04-22 13:51 | 50.82889 | 6.08406 | 22560 ft | 417 kts | 273° |
| 2026-04-22 13:51 | 50.82928 | 6.03812 | 22971 ft | 419 kts | 274° |
| 2026-04-22 13:52 | 50.82864 | 5.99169 | 23361 ft | 425 kts | 264° |
| 2026-04-22 13:52 | 50.82051 | 5.94654 | 23757 ft | 431 kts | 245° |
| 2026-04-22 13:52 | 50.80402 | 5.90701 | 24116 ft | 434 kts | 226° |
| 2026-04-22 13:52 | 50.78082 | 5.87779 | 24508 ft | 435 kts | 207° |
| 2026-04-22 13:53 | 50.75341 | 5.85621 | 24892 ft | 436 kts | 205° |
| 2026-04-22 13:53 | 50.72646 | 5.83392 | 25263 ft | 439 kts | 207° |
| 2026-04-22 13:53 | 50.69974 | 5.81051 | 25653 ft | 440 kts | 208° |
| 2026-04-22 13:53 | 50.67307 | 5.78657 | 26021 ft | 442 kts | 209° |
| 2026-04-22 13:54 | 50.64629 | 5.76252 | 26361 ft | 444 kts | 209° |
| 2026-04-22 13:54 | 50.61862 | 5.74063 | 26704 ft | 445 kts | 201° |
| 2026-04-22 13:54 | 50.58909 | 5.72631 | 27030 ft | 446 kts | 191° |
| 2026-04-22 13:54 | 50.55840 | 5.72001 | 27359 ft | 445 kts | 181° |
| 2026-04-22 13:55 | 50.52770 | 5.72142 | 27655 ft | 447 kts | 172° |
| 2026-04-22 13:55 | 50.49684 | 5.72740 | 27969 ft | 448 kts | 171° |
| 2026-04-22 13:55 | 50.46577 | 5.73339 | 28266 ft | 452 kts | 172° |
| 2026-04-22 13:55 | 50.43446 | 5.73932 | 28582 ft | 453 kts | 172° |
| 2026-04-22 13:56 | 50.40307 | 5.74524 | 28863 ft | 455 kts | 172° |
| 2026-04-22 13:56 | 50.37153 | 5.75119 | 29139 ft | 458 kts | 172° |
| 2026-04-22 13:56 | 50.33982 | 5.75715 | 29436 ft | 460 kts | 172° |
| 2026-04-22 13:56 | 50.30793 | 5.76324 | 29700 ft | 461 kts | 172° |
| 2026-04-22 13:57 | 50.27594 | 5.76939 | 29947 ft | 464 kts | 172° |
| 2026-04-22 13:57 | 50.24403 | 5.77794 | 30198 ft | 465 kts | 165° |
| 2026-04-22 13:57 | 50.21291 | 5.79163 | 30416 ft | 466 kts | 163° |
| 2026-04-22 13:57 | 50.18160 | 5.80567 | 30599 ft | 469 kts | 163° |
| 2026-04-22 13:58 | 50.15022 | 5.81966 | 30810 ft | 471 kts | 163° |
| 2026-04-22 13:58 | 50.11865 | 5.83367 | 30998 ft | 473 kts | 163° |
| 2026-04-22 13:58 | 50.08696 | 5.84766 | 31275 ft | 473 kts | 163° |
| 2026-04-22 13:58 | 50.05532 | 5.86167 | 31565 ft | 473 kts | 163° |
| 2026-04-22 13:59 | 50.02367 | 5.87571 | 31837 ft | 473 kts | 163° |
| 2026-04-22 13:59 | 49.99197 | 5.88969 | 32076 ft | 473 kts | 164° |
| 2026-04-22 13:59 | 49.96026 | 5.90366 | 32312 ft | 474 kts | 164° |
| 2026-04-22 13:59 | 49.92854 | 5.91767 | 32558 ft | 475 kts | 163° |
| 2026-04-22 14:00 | 49.89676 | 5.93171 | 32805 ft | 476 kts | 163° |
| 2026-04-22 14:00 | 49.87559 | 5.94109 | 33020 ft | 477 kts | 164° |
| 2026-04-22 14:00 | 49.84366 | 5.95516 | 33230 ft | 478 kts | 164° |
| 2026-04-22 14:00 | 49.81172 | 5.96916 | 33276 ft | 476 kts | 164° |
| 2026-04-22 14:01 | 49.74792 | 5.99694 | 33268 ft | 475 kts | 164° |
| 2026-04-22 14:01 | 49.68402 | 6.02472 | 33277 ft | 477 kts | 164° |
| 2026-04-22 14:02 | 49.62012 | 6.05253 | 33279 ft | 477 kts | 164° |
| 2026-04-22 14:02 | 49.55611 | 6.08040 | 33273 ft | 478 kts | 165° |
| 2026-04-22 14:03 | 49.49268 | 6.11118 | 33278 ft | 478 kts | 156° |
| 2026-04-22 14:03 | 49.43642 | 6.16455 | 33278 ft | 477 kts | 140° |
| 2026-04-22 14:04 | 49.38503 | 6.22849 | 33264 ft | 479 kts | 140° |
| 2026-04-22 14:04 | 49.33300 | 6.29272 | 33268 ft | 480 kts | 140° |
| 2026-04-22 14:05 | 49.28093 | 6.35678 | 33272 ft | 480 kts | 140° |
| 2026-04-22 14:06 | 49.20259 | 6.45289 | 33265 ft | 482 kts | 140° |
| 2026-04-22 14:06 | 49.15017 | 6.51709 | 33252 ft | 483 kts | 141° |
| 2026-04-22 14:07 | 49.09770 | 6.58114 | 33262 ft | 483 kts | 141° |
| 2026-04-22 14:07 | 49.04501 | 6.64512 | 33249 ft | 484 kts | 142° |
| 2026-04-22 14:08 | 48.98630 | 6.69393 | 33250 ft | 483 kts | 162° |
| 2026-04-22 14:08 | 48.92068 | 6.71306 | 33263 ft | 479 kts | 181° |
| 2026-04-22 14:09 | 48.85434 | 6.71099 | 33247 ft | 477 kts | 184° |
| 2026-04-22 14:09 | 48.78845 | 6.70834 | 33251 ft | 478 kts | 185° |
| 2026-04-22 14:10 | 48.72195 | 6.70572 | 33242 ft | 479 kts | 184° |
| 2026-04-22 14:10 | 48.65540 | 6.70309 | 33249 ft | 479 kts | 185° |
| 2026-04-22 14:11 | 48.58854 | 6.70061 | 33238 ft | 481 kts | 185° |
| 2026-04-22 14:11 | 48.52178 | 6.69812 | 33230 ft | 479 kts | 185° |
| 2026-04-22 14:12 | 48.45496 | 6.69556 | 33229 ft | 480 kts | 185° |
| 2026-04-22 14:12 | 48.38800 | 6.69295 | 33226 ft | 480 kts | 185° |
| 2026-04-22 14:13 | 48.32111 | 6.69041 | 33219 ft | 481 kts | 186° |
| 2026-04-22 14:13 | 48.25424 | 6.68770 | 33220 ft | 480 kts | 186° |
| 2026-04-22 14:14 | 48.18729 | 6.68521 | 33195 ft | 480 kts | 185° |
| 2026-04-22 14:14 | 48.12086 | 6.68275 | 33193 ft | 481 kts | 186° |
| 2026-04-22 14:15 | 48.05380 | 6.68014 | 33573 ft | 481 kts | 186° |
| 2026-04-22 14:15 | 48.02029 | 6.67885 | 33861 ft | 481 kts | 186° |
| 2026-04-22 14:15 | 47.98671 | 6.67756 | 34115 ft | 482 kts | 186° |
| 2026-04-22 14:15 | 47.95316 | 6.67629 | 34349 ft | 482 kts | 187° |
| 2026-04-22 14:16 | 47.91972 | 6.67493 | 34526 ft | 483 kts | 187° |
| 2026-04-22 14:16 | 47.88597 | 6.67359 | 34738 ft | 484 kts | 187° |
| 2026-04-22 14:16 | 47.85237 | 6.67244 | 34950 ft | 484 kts | 187° |
| 2026-04-22 14:16 | 47.81864 | 6.67129 | 35165 ft | 484 kts | 186° |
| 2026-04-22 14:17 | 47.78501 | 6.67010 | 35385 ft | 484 kts | 186° |
| 2026-04-22 14:17 | 47.75125 | 6.66875 | 35619 ft | 485 kts | 186° |
| 2026-04-22 14:17 | 47.71753 | 6.66738 | 35871 ft | 484 kts | 186° |
| 2026-04-22 14:17 | 47.68387 | 6.66608 | 36100 ft | 483 kts | 186° |
| 2026-04-22 14:18 | 47.65065 | 6.66485 | 36328 ft | 483 kts | 186° |
| 2026-04-22 14:18 | 47.61706 | 6.66361 | 36516 ft | 483 kts | 185° |
| 2026-04-22 14:18 | 47.58348 | 6.66239 | 36703 ft | 483 kts | 186° |
| 2026-04-22 14:18 | 47.54943 | 6.66121 | 36965 ft | 481 kts | 185° |
| 2026-04-22 14:19 | 47.51606 | 6.65999 | 37132 ft | 478 kts | 185° |
| 2026-04-22 14:19 | 47.45043 | 6.65611 | 37167 ft | 471 kts | 192° |
| 2026-04-22 14:20 | 47.36088 | 6.60744 | 37155 ft | 448 kts | 220° |
| 2026-04-22 14:20 | 47.31286 | 6.55006 | 37158 ft | 445 kts | 227° |
| 2026-04-22 14:21 | 47.24182 | 6.46132 | 37168 ft | 445 kts | 226° |
| 2026-04-22 14:22 | 47.17115 | 6.37310 | 37161 ft | 445 kts | 226° |
| 2026-04-22 14:23 | 47.10046 | 6.28588 | 37156 ft | 446 kts | 223° |
| 2026-04-22 14:23 | 47.04475 | 6.24314 | 37149 ft | 461 kts | 203° |
| 2026-04-22 14:23 | 47.01342 | 6.23261 | 37137 ft | 465 kts | 192° |
| 2026-04-22 14:24 | 46.98115 | 6.22801 | 37124 ft | 465 kts | 189° |
| 2026-04-22 14:24 | 46.91665 | 6.21952 | 37112 ft | 468 kts | 190° |
| 2026-04-22 14:25 | 46.85147 | 6.21082 | 37107 ft | 472 kts | 190° |
| 2026-04-22 14:25 | 46.78640 | 6.20221 | 37107 ft | 468 kts | 190° |
| 2026-04-22 14:26 | 46.72152 | 6.19361 | 37106 ft | 467 kts | 191° |
| 2026-04-22 14:26 | 46.65644 | 6.18496 | 37119 ft | 469 kts | 191° |
| 2026-04-22 14:27 | 46.59133 | 6.17629 | 37101 ft | 470 kts | 191° |
| 2026-04-22 14:27 | 46.52605 | 6.16792 | 37098 ft | 470 kts | 191° |
| 2026-04-22 14:28 | 46.46072 | 6.15937 | 37092 ft | 472 kts | 191° |
| 2026-04-22 14:28 | 46.39523 | 6.15065 | 37120 ft | 472 kts | 191° |
| 2026-04-22 14:29 | 46.33029 | 6.14205 | 37122 ft | 469 kts | 191° |
| 2026-04-22 14:29 | 46.26526 | 6.13377 | 37114 ft | 469 kts | 191° |
| 2026-04-22 14:30 | 46.20058 | 6.12258 | 37113 ft | 466 kts | 195° |
| 2026-04-22 14:30 | 46.13655 | 6.10727 | 37113 ft | 468 kts | 196° |
| 2026-04-22 14:31 | 46.07239 | 6.09145 | 37131 ft | 469 kts | 195° |
| 2026-04-22 14:31 | 46.00769 | 6.07716 | 37123 ft | 469 kts | 195° |
| 2026-04-22 14:32 | 45.94313 | 6.06333 | 37121 ft | 468 kts | 195° |
| 2026-04-22 14:32 | 45.87882 | 6.04931 | 37110 ft | 467 kts | 195° |
| 2026-04-22 14:33 | 45.81477 | 6.03526 | 37092 ft | 464 kts | 195° |
| 2026-04-22 14:33 | 45.75101 | 6.02105 | 37085 ft | 465 kts | 195° |
| 2026-04-22 14:34 | 45.68763 | 6.00684 | 37068 ft | 463 kts | 195° |
| 2026-04-22 14:34 | 45.62334 | 5.99245 | 37069 ft | 465 kts | 195° |
| 2026-04-22 14:35 | 45.55916 | 5.97855 | 37073 ft | 467 kts | 194° |
| 2026-04-22 14:35 | 45.49552 | 5.96492 | 37076 ft | 464 kts | 195° |
| 2026-04-22 14:36 | 45.43235 | 5.94914 | 37049 ft | 459 kts | 198° |
| 2026-04-22 14:36 | 45.37009 | 5.92875 | 37067 ft | 460 kts | 200° |
| 2026-04-22 14:37 | 45.30760 | 5.90751 | 37099 ft | 460 kts | 199° |
| 2026-04-22 14:37 | 45.24515 | 5.88772 | 37115 ft | 460 kts | 198° |
| 2026-04-22 14:38 | 45.18256 | 5.86867 | 37109 ft | 459 kts | 198° |
| 2026-04-22 14:38 | 45.12021 | 5.84963 | 37107 ft | 457 kts | 198° |
| 2026-04-22 14:39 | 45.05849 | 5.83046 | 37102 ft | 457 kts | 198° |
| 2026-04-22 14:39 | 44.99676 | 5.81157 | 37091 ft | 455 kts | 198° |
| 2026-04-22 14:40 | 44.90461 | 5.78319 | 37069 ft | 453 kts | 197° |
| 2026-04-22 14:40 | 44.84283 | 5.76426 | 37084 ft | 457 kts | 197° |
| 2026-04-22 14:41 | 44.78070 | 5.74528 | 37097 ft | 457 kts | 198° |
| 2026-04-22 14:41 | 44.71871 | 5.72616 | 37097 ft | 455 kts | 197° |
| 2026-04-22 14:42 | 44.65691 | 5.70720 | 37083 ft | 455 kts | 197° |
| 2026-04-22 14:42 | 44.59511 | 5.68850 | 37106 ft | 454 kts | 197° |
| 2026-04-22 14:43 | 44.53366 | 5.67019 | 37096 ft | 453 kts | 197° |
| 2026-04-22 14:43 | 44.47227 | 5.65156 | 37106 ft | 451 kts | 197° |
| 2026-04-22 14:44 | 44.41088 | 5.63283 | 37104 ft | 451 kts | 197° |
| 2026-04-22 14:44 | 44.35136 | 5.60777 | 37108 ft | 444 kts | 207° |
| 2026-04-22 14:45 | 44.29399 | 5.57629 | 37092 ft | 443 kts | 207° |
| 2026-04-22 14:45 | 44.24626 | 5.55010 | 37090 ft | 444 kts | 206° |
| 2026-04-22 14:46 | 44.18884 | 5.51884 | 37083 ft | 443 kts | 206° |
| 2026-04-22 14:46 | 44.13125 | 5.48743 | 37088 ft | 444 kts | 206° |
| 2026-04-22 14:47 | 44.07359 | 5.45613 | 37100 ft | 446 kts | 206° |
| 2026-04-22 14:47 | 44.01610 | 5.42496 | 37112 ft | 446 kts | 206° |
| 2026-04-22 14:48 | 43.95843 | 5.39357 | 37102 ft | 445 kts | 206° |
| 2026-04-22 14:48 | 43.90074 | 5.36235 | 37105 ft | 445 kts | 206° |
| 2026-04-22 14:49 | 43.84288 | 5.33111 | 37116 ft | 447 kts | 206° |
| 2026-04-22 14:49 | 43.78503 | 5.29995 | 37115 ft | 444 kts | 206° |
| 2026-04-22 14:50 | 43.72741 | 5.26918 | 37115 ft | 444 kts | 206° |
| 2026-04-22 14:50 | 43.66985 | 5.23824 | 37111 ft | 444 kts | 206° |
| 2026-04-22 14:51 | 43.61232 | 5.20723 | 37108 ft | 443 kts | 206° |
| 2026-04-22 14:51 | 43.55478 | 5.17641 | 37118 ft | 443 kts | 206° |
| 2026-04-22 14:52 | 43.49728 | 5.14596 | 37099 ft | 442 kts | 206° |
| 2026-04-22 14:52 | 43.43986 | 5.11548 | 37101 ft | 442 kts | 206° |
| 2026-04-22 14:53 | 43.38391 | 5.08302 | 37102 ft | 436 kts | 214° |
| 2026-04-22 14:53 | 43.33375 | 5.03730 | 37094 ft | 432 kts | 219° |
| 2026-04-22 14:54 | 43.28427 | 4.99055 | 37102 ft | 431 kts | 219° |
| 2026-04-22 14:54 | 43.23473 | 4.94407 | 37082 ft | 431 kts | 218° |
| 2026-04-22 14:55 | 43.18521 | 4.89781 | 37080 ft | 430 kts | 219° |
| 2026-04-22 14:55 | 43.13580 | 4.85148 | 37076 ft | 430 kts | 218° |
| 2026-04-22 14:56 | 43.08644 | 4.80517 | 37097 ft | 431 kts | 219° |
| 2026-04-22 14:56 | 43.03592 | 4.76127 | 37099 ft | 436 kts | 213° |
| 2026-04-22 14:57 | 42.98289 | 4.72110 | 37109 ft | 435 kts | 213° |
| 2026-04-22 14:57 | 42.92993 | 4.68095 | 37111 ft | 436 kts | 213° |
| 2026-04-22 14:58 | 42.87699 | 4.64113 | 37108 ft | 434 kts | 213° |
| 2026-04-22 14:58 | 42.82412 | 4.60130 | 37085 ft | 434 kts | 213° |
| 2026-04-22 14:59 | 42.77138 | 4.56148 | 37091 ft | 434 kts | 213° |
| 2026-04-22 14:59 | 42.71851 | 4.52175 | 37098 ft | 435 kts | 213° |
| 2026-04-22 15:00 | 42.66565 | 4.48205 | 37082 ft | 433 kts | 213° |
| 2026-04-22 15:00 | 42.61304 | 4.44246 | 37080 ft | 432 kts | 213° |
| 2026-04-22 15:01 | 42.56013 | 4.40296 | 37079 ft | 433 kts | 212° |
| 2026-04-22 15:01 | 42.50725 | 4.36366 | 37078 ft | 433 kts | 212° |
| 2026-04-22 15:02 | 42.45445 | 4.32448 | 37082 ft | 434 kts | 213° |
| 2026-04-22 15:02 | 42.40170 | 4.28521 | 37071 ft | 435 kts | 212° |
| 2026-04-22 15:03 | 42.34857 | 4.24580 | 37065 ft | 435 kts | 212° |
| 2026-04-22 15:03 | 42.29552 | 4.20650 | 37061 ft | 435 kts | 212° |
| 2026-04-22 15:04 | 42.24237 | 4.16726 | 37056 ft | 436 kts | 212° |
| 2026-04-22 15:04 | 42.18915 | 4.12811 | 37057 ft | 437 kts | 213° |
| 2026-04-22 15:05 | 42.13510 | 4.08824 | 37056 ft | 447 kts | 213° |
| 2026-04-22 15:05 | 42.08032 | 4.04792 | 37050 ft | 449 kts | 214° |
| 2026-04-22 15:06 | 42.02546 | 4.00769 | 37053 ft | 449 kts | 213° |
| 2026-04-22 15:06 | 41.97045 | 3.96766 | 37051 ft | 449 kts | 213° |
| 2026-04-22 15:07 | 41.91338 | 3.93313 | 37055 ft | 456 kts | 200° |
| 2026-04-22 15:07 | 41.85043 | 3.91670 | 37054 ft | 461 kts | 193° |
| 2026-04-22 15:08 | 41.78760 | 3.90233 | 37063 ft | 461 kts | 194° |
| 2026-04-22 15:08 | 41.72437 | 3.88754 | 37052 ft | 461 kts | 194° |
| 2026-04-22 15:09 | 41.66118 | 3.87286 | 37042 ft | 460 kts | 193° |
| 2026-04-22 15:09 | 41.59795 | 3.85837 | 37032 ft | 461 kts | 193° |
| 2026-04-22 15:10 | 41.53473 | 3.84401 | 37037 ft | 461 kts | 193° |
| 2026-04-22 15:10 | 41.47141 | 3.82946 | 37020 ft | 462 kts | 193° |
| 2026-04-22 15:11 | 41.40819 | 3.81491 | 37038 ft | 460 kts | 193° |
| 2026-04-22 15:11 | 41.34506 | 3.80056 | 37034 ft | 460 kts | 193° |
| 2026-04-22 15:12 | 41.28206 | 3.78623 | 37046 ft | 459 kts | 193° |
| 2026-04-22 15:12 | 41.21905 | 3.77197 | 37029 ft | 459 kts | 193° |
| 2026-04-22 15:13 | 41.18746 | 3.76484 | 36916 ft | 462 kts | 193° |
| 2026-04-22 15:13 | 41.15610 | 3.75665 | 36541 ft | 456 kts | 199° |
| 2026-04-22 15:13 | 41.12624 | 3.74326 | 36168 ft | 452 kts | 206° |
| 2026-04-22 15:13 | 41.09721 | 3.72807 | 35799 ft | 455 kts | 206° |
| 2026-04-22 15:14 | 41.06772 | 3.71271 | 35421 ft | 457 kts | 206° |
| 2026-04-22 15:14 | 41.03800 | 3.69737 | 35048 ft | 460 kts | 205° |
| 2026-04-22 15:14 | 41.00805 | 3.68200 | 34414 ft | 464 kts | 205° |
| 2026-04-22 15:14 | 40.97812 | 3.66672 | 33900 ft | 459 kts | 205° |
| 2026-04-22 15:15 | 40.94839 | 3.65159 | 33333 ft | 456 kts | 205° |
| 2026-04-22 15:15 | 40.91883 | 3.63648 | 32757 ft | 457 kts | 205° |
| 2026-04-22 15:15 | 40.88927 | 3.62130 | 32220 ft | 453 kts | 205° |
| 2026-04-22 15:15 | 40.86002 | 3.60625 | 31657 ft | 449 kts | 205° |
| 2026-04-22 15:16 | 40.83107 | 3.59141 | 31119 ft | 444 kts | 205° |
| 2026-04-22 15:16 | 40.80240 | 3.57672 | 30569 ft | 440 kts | 205° |
| 2026-04-22 15:16 | 40.77397 | 3.56221 | 30040 ft | 437 kts | 205° |
| 2026-04-22 15:16 | 40.74583 | 3.54791 | 29513 ft | 431 kts | 205° |
| 2026-04-22 15:17 | 40.71794 | 3.53379 | 29005 ft | 426 kts | 205° |
| 2026-04-22 15:17 | 40.69033 | 3.51974 | 28495 ft | 422 kts | 205° |
| 2026-04-22 15:17 | 40.66346 | 3.50603 | 27993 ft | 417 kts | 205° |
| 2026-04-22 15:17 | 40.63617 | 3.49221 | 27510 ft | 412 kts | 205° |
| 2026-04-22 15:18 | 40.60988 | 3.47887 | 27036 ft | 407 kts | 205° |
| 2026-04-22 15:18 | 40.58360 | 3.46553 | 26581 ft | 403 kts | 205° |
| 2026-04-22 15:18 | 40.55758 | 3.45228 | 26124 ft | 400 kts | 205° |
| 2026-04-22 15:18 | 40.53184 | 3.43920 | 25653 ft | 394 kts | 205° |
| 2026-04-22 15:19 | 40.50643 | 3.42630 | 25220 ft | 389 kts | 205° |
| 2026-04-22 15:19 | 40.48136 | 3.41359 | 25004 ft | 384 kts | 205° |
| 2026-04-22 15:19 | 40.45630 | 3.40147 | 25026 ft | 387 kts | 200° |
| 2026-04-22 15:19 | 40.42982 | 3.39459 | 25027 ft | 392 kts | 189° |
| 2026-04-22 15:20 | 40.41163 | 3.39382 | 25029 ft | 396 kts | 182° |
| 2026-04-22 15:20 | 40.37462 | 3.39479 | 24446 ft | 395 kts | 190° |
| 2026-04-22 15:20 | 40.34831 | 3.38674 | 23814 ft | 386 kts | 204° |
| 2026-04-22 15:20 | 40.32299 | 3.37486 | 23187 ft | 386 kts | 204° |
| 2026-04-22 15:21 | 40.29763 | 3.36287 | 22571 ft | 387 kts | 204° |
| 2026-04-22 15:21 | 40.27227 | 3.35085 | 21842 ft | 390 kts | 204° |
| 2026-04-22 15:21 | 40.24658 | 3.33872 | 21090 ft | 394 kts | 204° |
| 2026-04-22 15:21 | 40.22069 | 3.32656 | 20349 ft | 396 kts | 203° |
| 2026-04-22 15:22 | 40.19501 | 3.31456 | 19617 ft | 398 kts | 203° |
| 2026-04-22 15:22 | 40.16889 | 3.30233 | 18863 ft | 400 kts | 203° |
| 2026-04-22 15:22 | 40.14258 | 3.28990 | 18094 ft | 403 kts | 204° |
| 2026-04-22 15:22 | 40.11610 | 3.27739 | 17367 ft | 405 kts | 204° |
| 2026-04-22 15:23 | 40.08971 | 3.26496 | 16617 ft | 403 kts | 204° |
| 2026-04-22 15:23 | 40.06315 | 3.25249 | 15850 ft | 406 kts | 203° |
| 2026-04-22 15:23 | 40.03706 | 3.24034 | 15179 ft | 389 kts | 203° |
| 2026-04-22 15:23 | 40.01209 | 3.22877 | 14586 ft | 373 kts | 203° |
| 2026-04-22 15:24 | 39.98811 | 3.21765 | 13964 ft | 359 kts | 203° |
| 2026-04-22 15:24 | 39.96495 | 3.20682 | 13331 ft | 348 kts | 203° |
| 2026-04-22 15:24 | 39.94243 | 3.19629 | 12711 ft | 339 kts | 203° |
| 2026-04-22 15:24 | 39.92051 | 3.18606 | 12084 ft | 331 kts | 203° |
| 2026-04-22 15:25 | 39.89918 | 3.17605 | 11449 ft | 322 kts | 203° |
| 2026-04-22 15:25 | 39.87822 | 3.16622 | 10769 ft | 319 kts | 203° |
| 2026-04-22 15:25 | 39.85746 | 3.15651 | 10118 ft | 314 kts | 202° |
| 2026-04-22 15:25 | 39.83707 | 3.14706 | 9481 ft | 310 kts | 202° |
| 2026-04-22 15:26 | 39.81691 | 3.13772 | 8851 ft | 304 kts | 202° |
| 2026-04-22 15:26 | 39.79710 | 3.12842 | 8220 ft | 299 kts | 202° |
| 2026-04-22 15:26 | 39.77805 | 3.11963 | 7545 ft | 285 kts | 202° |
| 2026-04-22 15:26 | 39.75950 | 3.11105 | 6931 ft | 280 kts | 202° |
| 2026-04-22 15:27 | 39.74186 | 3.10285 | 6295 ft | 267 kts | 202° |
| 2026-04-22 15:27 | 39.72476 | 3.09487 | 5654 ft | 254 kts | 202° |
| 2026-04-22 15:27 | 39.70982 | 3.08386 | 5086 ft | 244 kts | 224° |
| 2026-04-22 15:27 | 39.69912 | 3.06748 | 4971 ft | 235 kts | 240° |
| 2026-04-22 15:28 | 39.69092 | 3.04984 | 4931 ft | 223 kts | 239° |
| 2026-04-22 15:28 | 39.68294 | 3.03292 | 4708 ft | 218 kts | 240° |
| 2026-04-22 15:28 | 39.67510 | 3.01614 | 4459 ft | 217 kts | 239° |
| 2026-04-22 15:28 | 39.66725 | 2.99939 | 4213 ft | 216 kts | 239° |
| 2026-04-22 15:29 | 39.65941 | 2.98256 | 3931 ft | 220 kts | 239° |
| 2026-04-22 15:29 | 39.65138 | 2.96548 | 3579 ft | 220 kts | 239° |
| 2026-04-22 15:29 | 39.64358 | 2.94884 | 3295 ft | 211 kts | 239° |
| 2026-04-22 15:30 | 39.63132 | 2.92290 | 2903 ft | 192 kts | 238° |
| 2026-04-22 15:30 | 39.62246 | 2.90398 | 2539 ft | 176 kts | 238° |
| 2026-04-22 15:30 | 39.61633 | 2.89083 | 2315 ft | 168 kts | 237° |
| 2026-04-22 15:30 | 39.61053 | 2.87848 | 2101 ft | 153 kts | 238° |
| 2026-04-22 15:31 | 39.60507 | 2.86701 | 1866 ft | 145 kts | 238° |
| 2026-04-22 15:31 | 39.59998 | 2.85616 | 1692 ft | 141 kts | 237° |
| 2026-04-22 15:31 | 39.59493 | 2.84537 | 1510 ft | 139 kts | 238° |
| 2026-04-22 15:31 | 39.58990 | 2.83478 | 1319 ft | 138 kts | 238° |
| 2026-04-22 15:32 | 39.58492 | 2.82417 | 1147 ft | 138 kts | 236° |
| 2026-04-22 15:32 | 39.57989 | 2.81367 | 988 ft | 137 kts | 237° |
| 2026-04-22 15:32 | 39.57493 | 2.80308 | 806 ft | 137 kts | 239° |
| 2026-04-22 15:32 | 39.56999 | 2.79259 | 619 ft | 136 kts | 239° |
| 2026-04-22 15:33 | 39.56505 | 2.78211 | 420 ft | 136 kts | 239° |
| 2026-04-22 15:33 | 39.56010 | 2.77164 | 244 ft | 136 kts | 239° |
| 2026-04-22 15:33 | 39.55517 | 2.76118 | 57 ft | 136 kts | 239° |
| 2026-04-22 15:33 | 39.55094 | 2.75216 | 36 ft | 82 kts | 238° |
| 2026-04-22 15:34 | 39.54953 | 2.74921 | 38 ft | 48 kts | 238° |
| 2026-04-22 15:34 | 39.54817 | 2.74587 | 38 ft | 32 kts | 261° |
| 2026-04-22 15:34 | 39.54805 | 2.74426 | 38 ft | 12 kts | 268° |
| 2026-04-22 15:34 | 39.54803 | 2.74313 | 38 ft | 13 kts | 269° |
| 2026-04-22 15:35 | 39.54803 | 2.74185 | 38 ft | 15 kts | 278° |
| 2026-04-22 15:35 | 39.54876 | 2.74085 | 38 ft | 16 kts | 331° |
| 2026-04-22 15:35 | 39.54964 | 2.74018 | 38 ft | 14 kts | 329° |
| 2026-04-22 15:35 | 39.55047 | 2.73951 | 38 ft | 14 kts | 328° |
| 2026-04-22 15:36 | 39.55131 | 2.73884 | 37 ft | 14 kts | 329° |
| 2026-04-22 15:36 | 39.55172 | 2.73800 | 38 ft | 13 kts | 241° |
| 2026-04-22 15:36 | 39.55171 | 2.73677 | 38 ft | 15 kts | 244° |
| 2026-04-22 15:36 | 39.55110 | 2.73548 | 37 ft | 18 kts | 238° |
| 2026-04-22 15:37 | 39.55047 | 2.73479 | 38 ft | 7 kts | 170° |
| 2026-04-22 15:37 | 39.55023 | 2.73488 | 38 ft | 1 kts | 164° |
| 2026-04-22 15:37 | 39.55019 | 2.73489 | 38 ft | 0 kts | 164° |